createdAt,value
2023-10-03T00:00:37.821Z,17.67
2023-10-03T00:03:09.823Z,18.38
2023-10-03T00:05:39.827Z,19.48
2023-10-03T00:08:09.497Z,18.30
2023-10-03T00:10:39.944Z,18.40
2023-10-03T00:13:09.600Z,17.23
2023-10-03T00:15:44.698Z,17.35
2023-10-03T00:18:13.329Z,17.33
2023-10-03T00:20:42.580Z,17.50
2023-10-03T00:23:11.298Z,16.80
2023-10-03T00:25:40.155Z,15.55
2023-10-03T00:28:09.014Z,16.27
2023-10-03T00:30:41.388Z,16.00
2023-10-03T00:33:13.663Z,15.45
2023-10-03T00:35:42.847Z,16.63
2023-10-03T00:38:15.401Z,14.82
2023-10-03T00:40:44.641Z,16.52
2023-10-03T00:43:13.602Z,15.93
2023-10-03T00:45:43.432Z,14.68
2023-10-03T00:48:13.081Z,15.73
2023-10-03T00:50:44.376Z,15.48
2023-10-03T00:53:14.964Z,14.80
2023-10-03T00:55:45.714Z,15.00
2023-10-03T00:58:25.211Z,15.73
2023-10-03T01:00:57.565Z,15.38
2023-10-03T01:03:28.397Z,15.02
2023-10-03T01:05:58.941Z,14.32
2023-10-03T01:08:30.588Z,15.50
2023-10-03T01:11:00.849Z,16.15
2023-10-03T01:13:30.809Z,16.45
2023-10-03T01:16:01.156Z,15.45
2023-10-03T01:18:32.408Z,15.77
2023-10-03T01:21:03.828Z,16.83
2023-10-03T01:23:36.451Z,15.35
2023-10-03T01:26:06.188Z,14.55
2023-10-03T01:28:36.092Z,16.38
2023-10-03T01:31:04.671Z,16.35
2023-10-03T01:33:33.998Z,16.90
2023-10-03T01:36:03.183Z,17.48
2023-10-03T01:38:31.754Z,16.50
2023-10-03T01:41:02.314Z,17.25
2023-10-03T01:43:30.971Z,15.38
2023-10-03T01:45:59.429Z,16.52
2023-10-03T01:48:28.228Z,17.02
2023-10-03T01:50:57.258Z,16.27
2023-10-03T01:53:26.464Z,16.83
2023-10-03T01:55:55.012Z,15.93
2023-10-03T01:58:26.394Z,15.82
2023-10-03T02:00:55.067Z,15.60
2023-10-03T02:03:24.310Z,15.07
2023-10-03T02:05:53.101Z,15.27
2023-10-03T02:08:26.798Z,14.77
2023-10-03T02:10:55.512Z,14.80
2023-10-03T02:13:25.902Z,16.27
2023-10-03T02:15:57.462Z,14.75
2023-10-03T02:18:26.043Z,16.05
2023-10-03T02:20:55.123Z,14.07
2023-10-03T02:23:24.543Z,15.88
2023-10-03T02:25:54.457Z,15.77
2023-10-03T02:28:22.929Z,15.63
2023-10-03T02:30:52.437Z,15.30
2023-10-03T02:33:24.226Z,16.52
2023-10-03T02:35:53.373Z,16.30
2023-10-03T02:38:30.858Z,16.13
2023-10-03T02:41:00.726Z,14.95
2023-10-03T02:43:33.199Z,15.50
2023-10-03T02:46:05.484Z,15.63
2023-10-03T02:48:35.716Z,15.30
2023-10-03T02:51:07.375Z,15.15
2023-10-03T02:53:36.426Z,15.55
2023-10-03T02:56:05.967Z,15.38
2023-10-03T02:58:35.103Z,15.73
2023-10-03T03:01:06.253Z,15.60
2023-10-03T03:03:35.744Z,15.73
2023-10-03T03:06:12.977Z,14.70
2023-10-03T03:08:45.231Z,15.90
2023-10-03T03:11:15.247Z,16.08
2023-10-03T03:13:43.651Z,15.40
2023-10-03T03:16:15.678Z,14.63
2023-10-03T03:18:45.491Z,15.73
2023-10-03T03:21:15.181Z,15.25
2023-10-03T03:23:44.885Z,14.77
2023-10-03T03:26:21.482Z,14.60
2023-10-03T03:28:51.632Z,14.20
2023-10-03T03:31:26.895Z,14.00
2023-10-03T03:33:58.087Z,14.55
2023-10-03T03:36:30.735Z,14.27
2023-10-03T03:39:04.932Z,15.00
2023-10-03T03:41:34.229Z,14.65
2023-10-03T03:44:02.674Z,14.65
2023-10-03T03:46:32.461Z,15.13
2023-10-03T03:49:00.990Z,15.32
2023-10-03T03:51:31.360Z,15.50
2023-10-03T03:54:01.118Z,15.05
2023-10-03T03:56:29.650Z,16.05
2023-10-03T03:58:58.147Z,15.77
2023-10-03T04:01:26.619Z,14.98
2023-10-03T04:03:59.349Z,15.57
2023-10-03T04:06:27.932Z,15.25
2023-10-03T04:09:08.712Z,16.75
2023-10-03T04:11:38.507Z,15.30
2023-10-03T04:14:08.647Z,15.13
2023-10-03T04:16:41.671Z,15.40
2023-10-03T04:19:12.516Z,15.40
2023-10-03T04:21:43.092Z,16.05
2023-10-03T04:24:13.646Z,15.30
2023-10-03T04:26:43.933Z,16.48
2023-10-03T04:29:14.566Z,15.43
2023-10-03T04:31:43.260Z,15.50
2023-10-03T04:34:17.029Z,16.35
2023-10-03T04:36:46.341Z,15.68
2023-10-03T04:39:14.889Z,15.50
2023-10-03T04:41:45.991Z,15.00
2023-10-03T04:44:16.912Z,15.25
2023-10-03T04:46:46.553Z,16.48
2023-10-03T04:49:17.040Z,15.27
2023-10-03T04:51:49.098Z,15.32
2023-10-03T04:54:18.757Z,15.63
2023-10-03T04:56:49.390Z,15.18
2023-10-03T04:59:20.485Z,15.50
2023-10-03T05:01:49.149Z,16.30
2023-10-03T05:04:18.993Z,15.00
2023-10-03T05:06:48.921Z,16.05
2023-10-03T05:09:19.006Z,15.57
2023-10-03T05:11:50.018Z,16.15
2023-10-03T05:14:19.584Z,15.65
2023-10-03T05:16:51.925Z,16.85
2023-10-03T05:19:22.322Z,16.33
2023-10-03T05:21:50.935Z,15.35
2023-10-03T05:24:20.236Z,17.20
2023-10-03T05:26:49.912Z,16.88
2023-10-03T05:29:18.564Z,15.60
2023-10-03T05:31:47.039Z,15.85
2023-10-03T05:34:16.625Z,15.63
2023-10-03T05:36:46.576Z,15.75
2023-10-03T05:39:18.835Z,16.15
2023-10-03T05:41:49.058Z,15.40
2023-10-03T05:44:19.716Z,15.43
2023-10-03T05:46:54.099Z,15.90
2023-10-03T05:49:22.615Z,16.30
2023-10-03T05:51:55.666Z,16.67
2023-10-03T05:54:24.954Z,16.45
2023-10-03T05:56:53.629Z,16.25
2023-10-03T05:59:22.106Z,16.17
2023-10-03T06:01:50.659Z,17.75
2023-10-03T06:04:19.244Z,16.58
2023-10-03T06:06:47.951Z,15.38
2023-10-03T06:09:17.719Z,16.05
2023-10-03T06:11:46.159Z,16.27
2023-10-03T06:14:15.822Z,15.88
2023-10-03T06:16:44.305Z,15.07
2023-10-03T06:19:12.728Z,15.40
2023-10-03T06:21:42.533Z,16.38
2023-10-03T06:24:11.109Z,15.38
2023-10-03T06:26:46.622Z,15.43
2023-10-03T06:29:16.643Z,15.98
2023-10-03T06:31:45.830Z,15.98
2023-10-03T06:34:14.231Z,16.70
2023-10-03T06:36:43.063Z,16.92
2023-10-03T06:39:13.715Z,16.67
2023-10-03T06:41:43.762Z,16.65
2023-10-03T06:44:12.833Z,16.42
2023-10-03T06:46:43.258Z,16.15
2023-10-03T06:49:12.714Z,16.15
2023-10-03T06:51:41.679Z,16.80
2023-10-03T06:54:10.137Z,17.13
2023-10-03T06:56:38.680Z,16.30
2023-10-03T06:59:11.828Z,16.42
2023-10-03T07:01:40.376Z,16.48
2023-10-03T07:04:09.046Z,15.90
2023-10-03T07:06:37.780Z,16.58
2023-10-03T07:09:11.971Z,16.38
2023-10-03T07:11:41.148Z,18.70
2023-10-03T07:14:14.227Z,18.02
2023-10-03T07:16:43.585Z,17.83
2023-10-03T07:19:12.070Z,16.30
2023-10-03T07:21:40.484Z,16.25
2023-10-03T07:24:09.092Z,17.13
2023-10-03T07:26:37.584Z,17.80
2023-10-03T07:29:07.363Z,17.45
2023-10-03T07:31:38.104Z,16.75
2023-10-03T07:34:07.391Z,19.20
2023-10-03T07:36:35.805Z,16.98
2023-10-03T07:39:04.797Z,17.65
2023-10-03T07:41:34.767Z,17.48
2023-10-03T07:44:05.299Z,17.48
2023-10-03T07:46:33.829Z,18.52
2023-10-03T07:49:03.888Z,18.23
2023-10-03T07:51:32.968Z,20.15
2023-10-03T07:54:01.546Z,18.27
2023-10-03T07:56:33.045Z,18.33
2023-10-03T07:59:05.376Z,19.27
2023-10-03T08:01:57.509Z,19.35
2023-10-03T08:04:33.056Z,19.23
2023-10-03T08:07:02.051Z,18.50
2023-10-03T08:09:34.604Z,19.67
2023-10-03T08:12:12.495Z,19.55
2023-10-03T08:14:43.146Z,19.10
2023-10-03T08:17:13.440Z,21.73
2023-10-03T08:19:46.611Z,19.52
2023-10-03T08:22:15.705Z,19.10
2023-10-03T08:24:45.952Z,19.40
2023-10-03T08:27:19.698Z,19.92
2023-10-03T08:29:52.278Z,20.13
2023-10-03T08:34:51.454Z,19.40
2023-10-03T08:37:22.479Z,18.73
2023-10-03T08:39:51.669Z,20.33
2023-10-03T08:42:23.240Z,19.40
2023-10-03T08:44:56.537Z,20.85
2023-10-03T08:47:30.890Z,24.40
2023-10-03T08:50:11.949Z,19.10
2023-10-03T08:52:48.140Z,19.80
2023-10-03T08:55:20.407Z,20.67
2023-10-03T08:57:49.736Z,21.27
2023-10-03T09:00:18.975Z,19.35
2023-10-03T09:02:51.484Z,20.88
2023-10-03T09:05:25.624Z,18.35
2023-10-03T09:07:56.611Z,20.10
2023-10-03T09:10:25.368Z,18.80
2023-10-03T09:12:54.201Z,21.58
2023-10-03T09:15:24.186Z,20.85
2023-10-03T09:17:54.055Z,19.73
2023-10-03T09:20:24.749Z,19.38
2023-10-03T09:23:06.504Z,23.17
2023-10-03T09:25:35.135Z,18.85
2023-10-03T09:28:06.695Z,20.88
2023-10-03T09:30:38.884Z,18.80
2023-10-03T09:33:07.778Z,18.77
2023-10-03T09:35:40.795Z,18.50
2023-10-03T09:38:18.444Z,18.20
2023-10-03T09:40:51.309Z,18.17
2023-10-03T09:43:21.144Z,19.02
2023-10-03T09:45:57.195Z,18.08
2023-10-03T09:48:26.403Z,18.35
2023-10-03T09:51:06.894Z,21.10
2023-10-03T09:53:37.597Z,18.98
2023-10-03T09:56:09.522Z,17.92
2023-10-03T09:58:38.808Z,18.83
2023-10-03T10:01:07.867Z,18.10
2023-10-03T10:03:40.157Z,18.35
2023-10-03T10:06:16.381Z,17.33
2023-10-03T10:08:56.117Z,18.52
2023-10-03T10:11:27.398Z,18.40
2023-10-03T10:14:10.599Z,19.98
2023-10-03T10:16:59.927Z,17.23
2023-10-03T10:19:48.430Z,18.48
2023-10-03T10:22:19.858Z,17.25
2023-10-03T10:25:10.877Z,17.63
2023-10-03T10:27:40.288Z,17.45
2023-10-03T10:30:14.724Z,17.80
2023-10-03T10:32:58.302Z,17.20
2023-10-03T10:35:45.773Z,17.42
2023-10-03T10:38:17.037Z,18.27
2023-10-03T10:41:00.308Z,17.25
2023-10-03T10:43:29.950Z,16.50
2023-10-03T10:46:13.194Z,16.35
2023-10-03T10:48:41.765Z,14.95
2023-10-03T10:51:12.313Z,16.08
2023-10-03T10:53:48.050Z,15.70
2023-10-03T10:56:16.933Z,15.73
2023-10-03T10:59:05.203Z,15.05
2023-10-03T11:01:40.583Z,15.35
2023-10-03T11:04:09.461Z,14.60
2023-10-03T11:06:38.114Z,15.20
2023-10-03T11:09:14.658Z,14.23
2023-10-03T11:11:43.181Z,14.98
2023-10-03T11:14:13.233Z,14.20
2023-10-03T11:16:43.318Z,13.80
2023-10-03T11:19:11.799Z,14.23
2023-10-03T11:21:41.653Z,15.38
2023-10-03T11:24:15.542Z,13.77
2023-10-03T11:26:44.742Z,14.30
2023-10-03T11:29:13.130Z,14.05
2023-10-03T11:31:42.181Z,15.02
2023-10-03T11:34:10.711Z,13.18
2023-10-03T11:36:43.702Z,14.82
2023-10-03T11:39:14.171Z,13.75
2023-10-03T11:41:45.816Z,12.88
2023-10-03T11:44:21.851Z,11.85
2023-10-03T11:46:50.597Z,13.60
2023-10-03T11:49:19.134Z,13.93
2023-10-03T11:51:48.425Z,12.88
2023-10-03T11:54:16.972Z,13.95
2023-10-03T11:56:47.826Z,12.90
2023-10-03T11:59:16.857Z,12.63
2023-10-03T12:01:47.756Z,13.93
2023-10-03T12:04:16.617Z,12.75
2023-10-03T12:06:45.748Z,11.90
2023-10-03T12:09:15.235Z,12.30
2023-10-03T12:11:43.948Z,12.20
2023-10-03T12:14:14.325Z,12.93
2023-10-03T12:16:44.138Z,11.80
2023-10-03T12:19:12.860Z,12.60
2023-10-03T12:21:41.333Z,11.95
2023-10-03T12:24:09.923Z,12.77
2023-10-03T12:26:38.606Z,12.73
2023-10-03T12:29:07.046Z,11.73
2023-10-03T12:31:37.505Z,12.05
2023-10-03T12:34:05.935Z,12.10
2023-10-03T12:36:34.464Z,12.23
2023-10-03T12:39:12.003Z,11.98
2023-10-03T12:41:41.264Z,11.55
2023-10-03T12:44:09.814Z,11.63
2023-10-03T12:46:39.631Z,11.70
2023-10-03T12:49:09.183Z,11.02
2023-10-03T12:51:37.709Z,10.98
2023-10-03T12:54:08.029Z,10.90
2023-10-03T12:56:37.029Z,11.02
2023-10-03T12:59:05.731Z,11.80
2023-10-03T13:01:34.381Z,10.30
2023-10-03T13:04:07.210Z,11.05
2023-10-03T13:06:35.730Z,10.55
2023-10-03T13:09:05.923Z,11.45
2023-10-03T13:11:34.601Z,11.10
2023-10-03T13:14:05.324Z,12.50
2023-10-03T13:16:33.890Z,11.13
2023-10-03T13:19:04.030Z,10.90
2023-10-03T13:21:34.764Z,10.55
2023-10-03T13:24:03.809Z,10.65
2023-10-03T13:26:32.490Z,10.57
2023-10-03T13:29:01.073Z,10.90
2023-10-03T13:31:29.787Z,12.18
2023-10-03T13:33:58.727Z,11.05
2023-10-03T13:36:28.605Z,11.23
2023-10-03T13:38:57.062Z,10.77
2023-10-03T13:41:25.547Z,11.32
2023-10-03T13:43:53.940Z,10.20
2023-10-03T13:46:23.082Z,9.25
2023-10-03T13:48:53.426Z,10.07
2023-10-03T13:51:21.964Z,9.90
2023-10-03T13:53:52.001Z,9.70
2023-10-03T13:56:20.624Z,9.55
2023-10-03T13:58:51.110Z,8.90
2023-10-03T14:01:20.154Z,10.10
2023-10-03T14:03:49.119Z,9.48
2023-10-03T14:06:21.039Z,9.15
2023-10-03T14:08:49.892Z,9.35
2023-10-03T14:11:23.235Z,8.27
2023-10-03T14:13:52.389Z,9.00
2023-10-03T14:16:22.769Z,9.30
2023-10-03T14:18:52.262Z,8.80
2023-10-03T14:21:29.185Z,9.13
2023-10-03T14:24:10.472Z,8.75
2023-10-03T14:26:40.996Z,8.57
2023-10-03T14:29:09.613Z,8.25
2023-10-03T14:31:38.484Z,9.00
2023-10-03T14:34:07.205Z,9.05
2023-10-03T14:36:35.632Z,8.40
2023-10-03T14:39:05.396Z,8.35
2023-10-03T14:41:34.236Z,8.30
2023-10-03T14:44:06.420Z,8.70
2023-10-03T14:46:35.257Z,7.88
2023-10-03T14:49:04.016Z,7.55
2023-10-03T14:51:33.019Z,6.65
2023-10-03T14:54:01.544Z,8.18
2023-10-03T14:56:29.967Z,7.45
2023-10-03T14:58:59.864Z,7.90
2023-10-03T15:01:30.109Z,7.20
2023-10-03T15:03:58.759Z,7.50
2023-10-03T15:06:27.503Z,8.88
2023-10-03T15:08:56.398Z,7.50
2023-10-03T15:11:25.789Z,7.55
2023-10-03T15:13:54.232Z,7.07
2023-10-03T15:16:23.893Z,7.40
2023-10-03T15:18:54.502Z,6.78
2023-10-03T15:21:23.248Z,6.82
2023-10-03T15:23:52.758Z,7.15
2023-10-03T15:26:21.934Z,7.57
2023-10-03T15:28:53.825Z,7.22
2023-10-03T15:31:24.827Z,7.40
2023-10-03T15:33:55.952Z,6.40
2023-10-03T15:36:24.498Z,7.15
2023-10-03T15:38:53.016Z,6.30
2023-10-03T15:41:21.504Z,6.18
2023-10-03T15:43:49.942Z,6.45
2023-10-03T15:46:18.434Z,7.05
2023-10-03T15:48:47.121Z,6.65
2023-10-03T15:51:17.284Z,7.32
2023-10-03T15:53:46.949Z,6.80
2023-10-03T15:56:18.206Z,6.72
2023-10-03T15:58:46.757Z,6.85
2023-10-03T16:01:16.347Z,6.85
2023-10-03T16:03:46.736Z,9.60
2023-10-03T16:06:18.249Z,8.70
2023-10-03T16:08:48.488Z,9.13
2023-10-03T16:11:18.155Z,9.95
2023-10-03T16:13:46.662Z,11.68
2023-10-03T16:16:15.842Z,12.88
2023-10-03T16:18:47.212Z,13.93
2023-10-03T16:21:17.888Z,15.07
2023-10-03T16:23:47.084Z,16.90
2023-10-03T16:26:15.573Z,19.42
2023-10-03T16:28:44.228Z,20.83
2023-10-03T16:31:15.276Z,21.83
2023-10-03T16:33:43.870Z,24.02
2023-10-03T16:36:12.992Z,22.45
2023-10-03T16:38:43.177Z,18.55
2023-10-03T16:41:11.742Z,17.55
2023-10-03T16:43:41.457Z,15.07
2023-10-03T16:46:10.976Z,15.45
2023-10-03T16:48:39.923Z,13.70
2023-10-03T16:51:08.723Z,11.65
2023-10-03T16:53:37.410Z,9.57
2023-10-03T16:56:08.935Z,8.32
2023-10-03T16:58:37.392Z,7.07
2023-10-03T17:01:06.025Z,6.60
2023-10-03T17:03:34.950Z,7.40
2023-10-03T17:06:04.724Z,7.43
2023-10-03T17:08:33.758Z,8.65
2023-10-03T17:11:02.139Z,9.18
2023-10-03T17:13:31.913Z,9.70
2023-10-03T17:16:00.342Z,8.30
2023-10-03T17:18:30.093Z,7.97
2023-10-03T17:20:58.992Z,6.90
2023-10-03T17:23:27.397Z,8.30
2023-10-03T17:25:56.351Z,7.60
2023-10-03T17:28:24.836Z,7.13
2023-10-03T17:30:55.148Z,8.23
2023-10-03T17:33:23.681Z,10.40
2023-10-03T17:35:52.480Z,9.45
2023-10-03T17:38:21.315Z,9.48
2023-10-03T17:40:51.787Z,6.38
2023-10-03T17:43:20.385Z,5.05
2023-10-03T17:45:48.747Z,5.40
2023-10-03T17:48:20.238Z,6.68
2023-10-03T17:50:49.354Z,6.10
2023-10-03T17:53:17.901Z,5.70
2023-10-03T17:55:47.350Z,5.45
2023-10-03T17:58:17.666Z,5.20
2023-10-03T18:00:47.114Z,5.95
2023-10-03T18:03:18.736Z,5.28
2023-10-03T18:05:48.809Z,5.13
2023-10-03T18:08:17.262Z,5.38
2023-10-03T18:10:45.716Z,5.28
2023-10-03T18:13:14.160Z,6.00
2023-10-03T18:15:42.714Z,5.10
2023-10-03T18:18:12.090Z,5.68
2023-10-03T18:20:40.644Z,5.95
2023-10-03T18:23:10.460Z,6.35
2023-10-03T18:25:39.573Z,6.28
2023-10-03T18:28:08.194Z,6.10
2023-10-03T18:30:37.173Z,7.72
2023-10-03T18:33:06.407Z,8.27
2023-10-03T18:35:35.051Z,9.35
2023-10-03T18:38:03.662Z,12.02
2023-10-03T18:40:35.726Z,6.70
2023-10-03T18:43:06.263Z,5.27
2023-10-03T18:45:47.343Z,6.05
2023-10-03T18:48:23.837Z,4.50
2023-10-03T18:51:02.004Z,3.83
2023-10-03T18:53:30.563Z,3.70
2023-10-03T18:56:00.360Z,4.07
2023-10-03T18:58:28.870Z,4.07
2023-10-03T19:00:58.690Z,4.00
2023-10-03T19:03:27.821Z,3.70
2023-10-03T19:05:57.542Z,4.30
2023-10-03T19:08:26.106Z,4.22
2023-10-03T19:10:54.490Z,3.95
2023-10-03T19:13:24.301Z,3.67
2023-10-03T19:15:52.689Z,4.53
2023-10-03T19:18:21.170Z,4.38
2023-10-03T19:20:49.684Z,3.70
2023-10-03T19:23:18.335Z,3.65
2023-10-03T19:25:46.727Z,3.83
2023-10-03T19:28:15.467Z,3.38
2023-10-03T19:30:45.324Z,2.88
2023-10-03T19:33:15.738Z,2.60
2023-10-03T19:35:44.508Z,3.15
2023-10-03T19:38:12.890Z,3.13
2023-10-03T19:40:41.281Z,3.78
2023-10-03T19:43:09.756Z,3.53
2023-10-03T19:45:39.005Z,3.10
2023-10-03T19:48:09.060Z,2.88
2023-10-03T19:50:37.646Z,2.85
2023-10-03T19:53:06.401Z,3.42
2023-10-03T19:55:35.689Z,3.53
2023-10-03T19:58:05.176Z,3.05
2023-10-03T20:00:33.673Z,3.60
2023-10-03T20:03:02.428Z,3.20
2023-10-03T20:05:32.309Z,2.95
2023-10-03T20:08:00.709Z,3.00
2023-10-03T20:10:29.488Z,3.28
2023-10-03T20:12:57.894Z,3.70
2023-10-03T20:15:28.274Z,3.35
2023-10-03T20:17:56.924Z,3.55
2023-10-03T20:20:25.911Z,3.58
2023-10-03T20:22:55.751Z,3.95
2023-10-03T20:25:24.654Z,3.72
2023-10-03T20:27:53.628Z,3.65
2023-10-03T20:30:22.099Z,4.07
2023-10-03T20:32:50.940Z,4.05
2023-10-03T20:35:19.439Z,4.13
2023-10-03T20:37:48.383Z,4.22
2023-10-03T20:40:18.357Z,4.57
2023-10-03T20:42:47.359Z,4.80
2023-10-03T20:45:16.065Z,4.50
2023-10-03T20:47:44.629Z,3.88
2023-10-03T20:50:13.420Z,4.18
2023-10-03T20:52:41.883Z,4.45
2023-10-03T20:55:10.692Z,4.63
2023-10-03T20:57:40.569Z,5.40
2023-10-03T21:00:13.707Z,4.95
2023-10-03T21:02:42.673Z,4.60
2023-10-03T21:05:14.387Z,5.80
2023-10-03T21:07:43.183Z,5.03
2023-10-03T21:10:15.820Z,5.43
2023-10-03T21:12:47.695Z,5.03
2023-10-03T21:15:17.094Z,4.63
2023-10-03T21:17:45.760Z,3.65
2023-10-03T21:20:14.654Z,3.58
2023-10-03T21:22:45.546Z,3.78
2023-10-03T21:25:13.987Z,3.63
2023-10-03T21:27:42.399Z,3.40
2023-10-03T21:30:13.463Z,3.13
2023-10-03T21:32:42.449Z,3.83
2023-10-03T21:35:11.263Z,3.92
2023-10-03T21:37:42.090Z,3.38
2023-10-03T21:40:11.235Z,3.00
2023-10-03T21:42:42.428Z,3.65
2023-10-03T21:45:13.777Z,3.35
2023-10-03T21:47:42.631Z,3.45
2023-10-03T21:50:11.482Z,3.80
2023-10-03T21:52:39.916Z,5.97
2023-10-03T21:55:10.020Z,3.90
2023-10-03T21:57:38.442Z,4.50
2023-10-03T22:00:23.111Z,6.15
2023-10-03T22:02:54.262Z,5.10
2023-10-03T22:05:24.023Z,3.60
2023-10-03T22:07:52.440Z,4.15
2023-10-03T22:10:21.000Z,3.50
2023-10-03T22:12:49.605Z,3.75
2023-10-03T22:15:19.127Z,4.03
2023-10-03T22:17:48.217Z,3.50
2023-10-03T22:20:18.167Z,3.28
2023-10-03T22:22:46.611Z,3.72
2023-10-03T22:25:15.236Z,3.15
2023-10-03T22:27:43.699Z,3.92
2023-10-03T22:30:13.968Z,3.38
2023-10-03T22:32:42.845Z,3.13
2023-10-03T22:35:13.907Z,3.75
2023-10-03T22:37:54.492Z,3.63
2023-10-03T22:40:32.937Z,3.25
2023-10-03T22:43:01.334Z,4.10
2023-10-03T22:45:29.902Z,3.60
2023-10-03T22:47:58.466Z,3.58
2023-10-03T22:50:26.938Z,3.63
2023-10-03T22:52:56.790Z,3.60
2023-10-03T22:55:25.438Z,3.95
2023-10-03T22:57:53.799Z,3.67
2023-10-03T23:00:23.309Z,3.78
2023-10-03T23:02:52.802Z,3.67
2023-10-03T23:05:21.349Z,5.13
2023-10-03T23:07:50.590Z,5.63
2023-10-03T23:10:20.816Z,3.95
2023-10-03T23:12:49.267Z,4.07
2023-10-03T23:15:18.606Z,4.18
2023-10-03T23:17:47.483Z,4.18
2023-10-03T23:20:16.111Z,4.53
2023-10-03T23:22:45.169Z,3.90
2023-10-03T23:25:15.102Z,4.03
2023-10-03T23:27:45.037Z,4.35
2023-10-03T23:30:13.899Z,3.95
2023-10-03T23:32:42.455Z,4.28
2023-10-03T23:35:11.493Z,4.03
2023-10-03T23:37:40.002Z,4.45
2023-10-03T23:40:14.490Z,3.85
2023-10-03T23:42:45.020Z,3.70
2023-10-03T23:45:18.186Z,4.10
2023-10-03T23:47:46.947Z,3.72
2023-10-03T23:50:19.604Z,3.45
2023-10-03T23:52:49.060Z,4.35
2023-10-03T23:55:19.256Z,3.63
2023-10-03T23:57:50.854Z,3.40
